Wednesday, February 21, 2018, 8:05 PM EST
Back to Local

KESN, Easton / Newman Field

Location: Easton, MD, United States Lat: 38.8
Local Time: 8:05 PM EST ( 1:05 GMT) Lon: -76.067
Time Zone: US/Eastern Elev: 72 ft

Show me the last for .
Show Decoded

2018-02-21 19:50 METAR KESN 220050Z 21010KT 10SM SKC 22/16 A3036 =
2018-02-21 18:50 METAR KESN 212350Z 21009KT 10SM SKC 22/16 A3035 =
2018-02-21 17:50 METAR KESN 212250Z 21007G15KT 10SM SKC 23/16 A3032 =
2018-02-21 16:50 METAR KESN 212150Z 21012G18KT 10SM FEW100 25/16 A3031 =
2018-02-21 15:50 METAR KESN 212050Z 23013G18KT 10SM FEW050 26/16 A3031 =
2018-02-21 14:50 METAR KESN 211950Z 23012G18KT 10SM FEW050 25/16 A3033 =
2018-02-21 13:50 METAR KESN 211850Z 23015G22KT 10SM FEW050 24/17 A3034 =
2018-02-21 12:50 METAR KESN 211750Z 23019G22KT 10SM SCT100 23/17 A3036 =
2018-02-21 11:50 METAR KESN 211650Z 23015G22KT 10SM SCT022 22/17 A3039 =
2018-02-21 11:13 METAR KESN 211613Z 23015G23KT 10SM BKN020 21/17 A3040 =
2018-02-21 10:50 METAR KESN 211550Z 23013G20KT 10SM SCT014 20/17 A3040 =
2018-02-21 09:50 METAR KESN 211450Z 23014G20KT 10SM OVC012 19/16 A3041 =
2018-02-21 08:54 METAR KESN 211354Z 23014G20KT 10SM OVC010 18/16 A3040 =
2018-02-21 07:54 METAR KESN 211254Z 23012KT 10SM OVC010 18/16 A3040 =
2018-02-21 06:59 METAR KESN 211159Z 23010KT 10SM OVC010 17/16 A3039 =
2018-02-21 05:50 METAR KESN 211050Z 22012G18KT 10SM OVC010 17/15 A3038 =
2018-02-21 05:06 METAR KESN 211006Z AUTO 22010KT 7SM OVC006 16/15 A3038 RMK AO2 T01600150 =
2018-02-21 04:48 METAR KESN 210948Z AUTO 21008KT 7SM OVC006 16/15 A3039 RMK AO2 T01600150 =
2018-02-21 04:26 METAR KESN 210928Z AUTO 22007KT 7SM OVC006 16/15 A3039 RMK AO2 T01600150 =
2018-02-21 04:06 METAR KESN 210908Z AUTO 20008KT 7SM OVC006 16/15 A3038 RMK AO2 T01610150 =
2018-02-21 03:48 METAR KESN 210848Z AUTO 20008KT 7SM OVC006 16/15 A3038 RMK AO2 T01620151 =
2018-02-21 03:27 METAR KESN 210828Z AUTO 20008KT 7SM OVC006 17/15 A3038 RMK AO2 T01650152 =
2018-02-21 03:06 METAR KESN 210808Z AUTO 20007KT 10SM SCT006 17/15 A3039 RMK AO2 T01650151 =
2018-02-21 02:48 METAR KESN 210748Z AUTO 20007KT 10SM CLR 17/15 A3039 RMK AO2 T01670152 =
2018-02-21 02:26 METAR KESN 210728Z AUTO 21009KT 10SM CLR 17/15 A3039 RMK AO2 T01700153 =
2018-02-21 02:06 METAR KESN 210708Z AUTO 21008KT 10SM BKN037 17/15 A3039 RMK AO2 T01720152 =
2018-02-21 01:48 METAR KESN 210648Z AUTO 21008KT 10SM OVC035 18/16 A3040 RMK AO2 T01750155 =
2018-02-21 01:28 METAR KESN 210628Z AUTO 21008KT 10SM OVC035 18/16 A3040 RMK AO2 T01750155 =
2018-02-21 01:07 METAR KESN 210608Z AUTO 21007KT 10SM OVC035 17/16 A3040 RMK AO2 T01730155 =
2018-02-21 00:48 METAR KESN 210548Z AUTO 21007KT 10SM BKN035 17/16 A3040 RMK AO2 T01700155 =
2018-02-21 00:27 METAR KESN 210528Z AUTO 21008KT 10SM SCT037 16/15 A3040 RMK AO2 T01640150 =
2018-02-21 00:06 METAR KESN 210508Z AUTO 21009KT 10SM SCT039 16/15 A3040 RMK AO2 T01620150 =
2018-02-20 23:48 METAR KESN 210448Z AUTO 21007KT 10SM CLR 16/15 A3040 RMK AO2 T01620150 =
2018-02-20 23:27 METAR KESN 210428Z AUTO 20007KT 10SM CLR 16/15 A3040 RMK AO2 T01610150 =
2018-02-20 23:07 METAR KESN 210408Z AUTO 20007KT 10SM CLR 16/15 A3040 RMK AO2 T01610151 =
2018-02-20 22:48 METAR KESN 210348Z AUTO 21008KT 7SM SCT003 16/15 A3040 RMK AO2 T01600149 =
2018-02-20 22:26 METAR KESN 210328Z AUTO 20009KT 7SM BKN005 16/15 A3040 RMK AO2 T01610150 =
2018-02-20 21:50 METAR KESN 210250Z 19009KT 7SM SCT005 16/15 A3040 =
2018-02-20 20:50 METAR KESN 210150Z 19009G15KT 10SM SKC 17/15 A3040 =

Support USWX by starting your Amazon purchase here.